sensor_id;sensor_type;location;lat;lon;timestamp;pressure;altitude;pressure_sealevel;temperature;humidity
78741;BME280;68062;48.726;9.370;2024-01-30T00:02:19;100141.41;;;-0.88;100.00
78741;BME280;68062;48.726;9.370;2024-01-30T00:04:48;100137.69;;;-0.93;100.00
78741;BME280;68062;48.726;9.370;2024-01-30T00:07:17;100131.53;;;-0.97;100.00
78741;BME280;68062;48.726;9.370;2024-01-30T00:09:46;100135.63;;;-0.99;100.00
78741;BME280;68062;48.726;9.370;2024-01-30T00:12:14;100148.09;;;-0.89;100.00
78741;BME280;68062;48.726;9.370;2024-01-30T00:14:42;100130.38;;;-1.02;100.00
78741;BME280;68062;48.726;9.370;2024-01-30T00:17:11;100141.66;;;-0.97;100.00
78741;BME280;68062;48.726;9.370;2024-01-30T00:19:39;100141.16;;;-1.05;100.00
78741;BME280;68062;48.726;9.370;2024-01-30T00:22:07;100139.69;;;-1.01;100.00
78741;BME280;68062;48.726;9.370;2024-01-30T00:24:36;100145.16;;;-0.95;100.00
78741;BME280;68062;48.726;9.370;2024-01-30T00:27:04;100147.06;;;-1.04;100.00
78741;BME280;68062;48.726;9.370;2024-01-30T00:29:32;100105.44;;;-1.23;100.00
78741;BME280;68062;48.726;9.370;2024-01-30T00:32:00;100142.13;;;-1.02;100.00
78741;BME280;68062;48.726;9.370;2024-01-30T00:34:28;100157.38;;;-1.01;100.00
78741;BME280;68062;48.726;9.370;2024-01-30T00:36:56;100153.28;;;-0.99;100.00
78741;BME280;68062;48.726;9.370;2024-01-30T00:39:24;100157.56;;;-0.98;100.00
78741;BME280;68062;48.726;9.370;2024-01-30T00:41:54;100155.81;;;-0.99;100.00
78741;BME280;68062;48.726;9.370;2024-01-30T00:44:22;100152.53;;;-0.98;100.00
78741;BME280;68062;48.726;9.370;2024-01-30T00:46:50;100152.28;;;-0.89;100.00
78741;BME280;68062;48.726;9.370;2024-01-30T00:49:17;100143.03;;;-0.89;100.00
78741;BME280;68062;48.726;9.370;2024-01-30T00:51:46;100146.34;;;-0.90;100.00
78741;BME280;68062;48.726;9.370;2024-01-30T00:54:14;100149.06;;;-0.86;100.00
78741;BME280;68062;48.726;9.370;2024-01-30T00:56:43;100151.34;;;-0.78;100.00
78741;BME280;68062;48.726;9.370;2024-01-30T00:59:13;100151.91;;;-0.82;100.00
78741;BME280;68062;48.726;9.370;2024-01-30T01:01:41;100104.41;;;-1.13;100.00
78741;BME280;68062;48.726;9.370;2024-01-30T01:04:09;100156.19;;;-0.81;100.00
78741;BME280;68062;48.726;9.370;2024-01-30T01:06:37;100156.59;;;-0.75;100.00
78741;BME280;68062;48.726;9.370;2024-01-30T01:09:05;100155.81;;;-0.73;100.00
78741;BME280;68062;48.726;9.370;2024-01-30T01:11:33;100165.59;;;-0.78;100.00
78741;BME280;68062;48.726;9.370;2024-01-30T01:14:01;100167.88;;;-0.69;100.00
78741;BME280;68062;48.726;9.370;2024-01-30T01:16:30;100158.13;;;-0.77;100.00
78741;BME280;68062;48.726;9.370;2024-01-30T01:18:58;100168.69;;;-0.82;100.00
78741;BME280;68062;48.726;9.370;2024-01-30T01:21:27;100161.25;;;-0.81;100.00
78741;BME280;68062;48.726;9.370;2024-01-30T01:23:55;100155.81;;;-0.73;100.00
78741;BME280;68062;48.726;9.370;2024-01-30T01:26:23;100161.72;;;-0.73;100.00
78741;BME280;68062;48.726;9.370;2024-01-30T01:28:51;100158.22;;;-0.75;100.00
78741;BME280;68062;48.726;9.370;2024-01-30T01:31:19;100117.53;;;-1.05;100.00
78741;BME280;68062;48.726;9.370;2024-01-30T01:33:52;100148.69;;;-0.79;100.00
78741;BME280;68062;48.726;9.370;2024-01-30T01:36:21;100145.69;;;-0.87;100.00
78741;BME280;68062;48.726;9.370;2024-01-30T01:38:49;100165.97;;;-0.85;100.00
78741;BME280;68062;48.726;9.370;2024-01-30T01:41:16;100142.56;;;-0.83;100.00
78741;BME280;68062;48.726;9.370;2024-01-30T01:43:44;100157.16;;;-0.79;100.00
78741;BME280;68062;48.726;9.370;2024-01-30T01:46:13;100163.44;;;-0.85;100.00
78741;BME280;68062;48.726;9.370;2024-01-30T01:48:41;100155.28;;;-0.81;100.00
78741;BME280;68062;48.726;9.370;2024-01-30T01:51:11;100156.75;;;-0.85;100.00
78741;BME280;68062;48.726;9.370;2024-01-30T01:53:39;100159.72;;;-0.91;100.00
78741;BME280;68062;48.726;9.370;2024-01-30T01:56:07;100160.50;;;-0.92;100.00
78741;BME280;68062;48.726;9.370;2024-01-30T01:58:36;100124.19;;;-1.19;100.00
78741;BME280;68062;48.726;9.370;2024-01-30T02:01:05;100159.44;;;-0.95;100.00
78741;BME280;68062;48.726;9.370;2024-01-30T02:03:33;100162.81;;;-0.95;100.00
78741;BME280;68062;48.726;9.370;2024-01-30T02:06:02;100150.47;;;-1.04;100.00
78741;BME280;68062;48.726;9.370;2024-01-30T02:08:32;100164.00;;;-0.90;100.00
78741;BME280;68062;48.726;9.370;2024-01-30T02:11:00;100158.97;;;-0.90;100.00
78741;BME280;68062;48.726;9.370;2024-01-30T02:13:28;100162.19;;;-0.92;100.00
78741;BME280;68062;48.726;9.370;2024-01-30T02:15:56;100171.19;;;-0.96;100.00
78741;BME280;68062;48.726;9.370;2024-01-30T02:18:24;100169.78;;;-1.04;100.00
78741;BME280;68062;48.726;9.370;2024-01-30T02:20:54;100159.47;;;-1.07;100.00
78741;BME280;68062;48.726;9.370;2024-01-30T02:23:25;100164.13;;;-1.13;100.00
78741;BME280;68062;48.726;9.370;2024-01-30T02:25:53;100156.34;;;-1.16;100.00
78741;BME280;68062;48.726;9.370;2024-01-30T02:28:21;100167.19;;;-1.06;100.00
78741;BME280;68062;48.726;9.370;2024-01-30T02:30:50;100166.19;;;-1.08;100.00
78741;BME280;68062;48.726;9.370;2024-01-30T02:33:18;100149.25;;;-1.22;100.00
78741;BME280;68062;48.726;9.370;2024-01-30T02:35:46;100158.44;;;-1.23;100.00
78741;BME280;68062;48.726;9.370;2024-01-30T02:38:15;100134.16;;;-1.34;100.00
78741;BME280;68062;48.726;9.370;2024-01-30T02:40:44;100155.91;;;-1.23;100.00
78741;BME280;68062;48.726;9.370;2024-01-30T02:43:12;100140.75;;;-1.36;100.00
78741;BME280;68062;48.726;9.370;2024-01-30T02:45:40;100159.69;;;-1.29;100.00
78741;BME280;68062;48.726;9.370;2024-01-30T02:48:08;100157.66;;;-1.35;100.00
78741;BME280;68062;48.726;9.370;2024-01-30T02:50:36;100152.19;;;-1.41;100.00
78741;BME280;68062;48.726;9.370;2024-01-30T02:53:04;100161.09;;;-1.46;100.00
78741;BME280;68062;48.726;9.370;2024-01-30T02:55:32;100157.44;;;-1.50;100.00
78741;BME280;68062;48.726;9.370;2024-01-30T02:58:02;100160.75;;;-1.51;100.00
78741;BME280;68062;48.726;9.370;2024-01-30T03:00:30;100155.06;;;-1.49;100.00
78741;BME280;68062;48.726;9.370;2024-01-30T03:02:57;100156.13;;;-1.45;100.00
78741;BME280;68062;48.726;9.370;2024-01-30T03:05:26;100149.31;;;-1.46;100.00
78741;BME280;68062;48.726;9.370;2024-01-30T03:07:54;100155.34;;;-1.44;100.00
78741;BME280;68062;48.726;9.370;2024-01-30T03:10:22;100152.06;;;-1.43;100.00
78741;BME280;68062;48.726;9.370;2024-01-30T03:12:50;100134.66;;;-1.52;100.00
78741;BME280;68062;48.726;9.370;2024-01-30T03:15:19;100150.22;;;-1.45;100.00
78741;BME280;68062;48.726;9.370;2024-01-30T03:17:47;100152.09;;;-1.55;100.00
78741;BME280;68062;48.726;9.370;2024-01-30T03:20:15;100155.41;;;-1.56;100.00
78741;BME280;68062;48.726;9.370;2024-01-30T03:22:43;100159.00;;;-1.52;100.00
78741;BME280;68062;48.726;9.370;2024-01-30T03:25:11;100158.34;;;-1.50;100.00
78741;BME280;68062;48.726;9.370;2024-01-30T03:27:39;100163.63;;;-1.58;100.00
78741;BME280;68062;48.726;9.370;2024-01-30T03:30:08;100160.22;;;-1.59;100.00
78741;BME280;68062;48.726;9.370;2024-01-30T03:32:37;100160.66;;;-1.65;100.00
78741;BME280;68062;48.726;9.370;2024-01-30T03:35:06;100153.31;;;-1.61;100.00
78741;BME280;68062;48.726;9.370;2024-01-30T03:37:34;100155.06;;;-1.60;100.00
78741;BME280;68062;48.726;9.370;2024-01-30T03:40:02;100156.94;;;-1.58;100.00
78741;BME280;68062;48.726;9.370;2024-01-30T03:42:31;100160.88;;;-1.61;100.00
78741;BME280;68062;48.726;9.370;2024-01-30T03:44:59;100161.66;;;-1.63;100.00
78741;BME280;68062;48.726;9.370;2024-01-30T03:47:27;100156.84;;;-1.71;100.00
78741;BME280;68062;48.726;9.370;2024-01-30T03:49:56;100160.91;;;-1.73;100.00
78741;BME280;68062;48.726;9.370;2024-01-30T03:52:24;100159.59;;;-1.80;100.00
78741;BME280;68062;48.726;9.370;2024-01-30T03:54:52;100166.31;;;-1.81;100.00
78741;BME280;68062;48.726;9.370;2024-01-30T03:57:20;100167.50;;;-1.87;100.00
78741;BME280;68062;48.726;9.370;2024-01-30T03:59:48;100164.22;;;-1.86;100.00
78741;BME280;68062;48.726;9.370;2024-01-30T04:02:16;100165.31;;;-1.95;100.00
78741;BME280;68062;48.726;9.370;2024-01-30T04:04:44;100171.13;;;-1.96;100.00
78741;BME280;68062;48.726;9.370;2024-01-30T04:07:14;100171.34;;;-1.93;100.00
78741;BME280;68062;48.726;9.370;2024-01-30T04:09:42;100164.88;;;-1.89;100.00
78741;BME280;68062;48.726;9.370;2024-01-30T04:12:10;100144.50;;;-2.04;100.00
78741;BME280;68062;48.726;9.370;2024-01-30T04:14:38;100176.38;;;-1.93;100.00
78741;BME280;68062;48.726;9.370;2024-01-30T04:17:07;100161.03;;;-1.96;100.00
78741;BME280;68062;48.726;9.370;2024-01-30T04:19:37;100162.56;;;-1.98;100.00
78741;BME280;68062;48.726;9.370;2024-01-30T04:22:05;100162.91;;;-1.93;100.00
78741;BME280;68062;48.726;9.370;2024-01-30T04:24:34;100167.41;;;-2.01;100.00
78741;BME280;68062;48.726;9.370;2024-01-30T04:27:03;100158.97;;;-2.01;100.00
78741;BME280;68062;48.726;9.370;2024-01-30T04:29:30;100160.81;;;-1.99;100.00
78741;BME280;68062;48.726;9.370;2024-01-30T04:32:00;100157.66;;;-1.96;100.00
78741;BME280;68062;48.726;9.370;2024-01-30T04:34:28;100161.81;;;-1.97;100.00
78741;BME280;68062;48.726;9.370;2024-01-30T04:36:56;100164.34;;;-1.97;100.00
78741;BME280;68062;48.726;9.370;2024-01-30T04:39:25;100166.00;;;-1.97;100.00
78741;BME280;68062;48.726;9.370;2024-01-30T04:41:54;100162.56;;;-1.98;100.00
78741;BME280;68062;48.726;9.370;2024-01-30T04:44:21;100154.16;;;-1.98;100.00
78741;BME280;68062;48.726;9.370;2024-01-30T04:46:49;100161.94;;;-1.95;100.00
78741;BME280;68062;48.726;9.370;2024-01-30T04:49:17;100103.66;;;-2.35;100.00
78741;BME280;68062;48.726;9.370;2024-01-30T04:51:45;100164.88;;;-2.01;100.00
78741;BME280;68062;48.726;9.370;2024-01-30T04:54:13;100165.56;;;-2.03;100.00
78741;BME280;68062;48.726;9.370;2024-01-30T04:56:41;100158.09;;;-2.02;100.00
78741;BME280;68062;48.726;9.370;2024-01-30T04:59:10;100165.56;;;-2.03;100.00
78741;BME280;68062;48.726;9.370;2024-01-30T05:01:37;100172.00;;;-2.07;100.00
78741;BME280;68062;48.726;9.370;2024-01-30T05:04:07;100165.44;;;-2.05;100.00
78741;BME280;68062;48.726;9.370;2024-01-30T05:06:37;100163.78;;;-1.93;100.00
78741;BME280;68062;48.726;9.370;2024-01-30T05:09:05;100153.59;;;-1.94;100.00
78741;BME280;68062;48.726;9.370;2024-01-30T05:11:38;100176.28;;;-1.94;100.00
78741;BME280;68062;48.726;9.370;2024-01-30T05:14:06;100169.84;;;-2.02;100.00
78741;BME280;68062;48.726;9.370;2024-01-30T05:16:37;100170.47;;;-2.05;100.00
78741;BME280;68062;48.726;9.370;2024-01-30T05:19:04;100177.06;;;-2.07;100.00
78741;BME280;68062;48.726;9.370;2024-01-30T05:21:32;100180.78;;;-2.14;100.00
78741;BME280;68062;48.726;9.370;2024-01-30T05:24:00;100185.06;;;-2.13;100.00
78741;BME280;68062;48.726;9.370;2024-01-30T05:26:28;100180.78;;;-2.14;100.00
78741;BME280;68062;48.726;9.370;2024-01-30T05:28:56;100177.94;;;-2.07;100.00
78741;BME280;68062;48.726;9.370;2024-01-30T05:31:24;100180.69;;;-2.03;100.00
78741;BME280;68062;48.726;9.370;2024-01-30T05:33:55;100184.53;;;-2.09;100.00
78741;BME280;68062;48.726;9.370;2024-01-30T05:36:23;100189.88;;;-2.16;100.00
78741;BME280;68062;48.726;9.370;2024-01-30T05:38:51;100181.34;;;-2.18;100.00
78741;BME280;68062;48.726;9.370;2024-01-30T05:41:20;100187.91;;;-2.20;100.00
78741;BME280;68062;48.726;9.370;2024-01-30T05:43:48;100182.88;;;-2.20;100.00
78741;BME280;68062;48.726;9.370;2024-01-30T05:46:16;100182.31;;;-2.16;100.00
78741;BME280;68062;48.726;9.370;2024-01-30T05:48:46;100183.72;;;-2.19;100.00
78741;BME280;68062;48.726;9.370;2024-01-30T05:51:16;100183.28;;;-2.26;100.00
78741;BME280;68062;48.726;9.370;2024-01-30T05:53:43;100184.41;;;-2.22;100.00
78741;BME280;68062;48.726;9.370;2024-01-30T05:56:11;100186.38;;;-2.18;100.00
78741;BME280;68062;48.726;9.370;2024-01-30T05:58:39;100188.56;;;-2.23;100.00
78741;BME280;68062;48.726;9.370;2024-01-30T06:01:09;100180.91;;;-2.24;100.00
78741;BME280;68062;48.726;9.370;2024-01-30T06:03:37;100192.28;;;-2.17;100.00
78741;BME280;68062;48.726;9.370;2024-01-30T06:06:06;100186.38;;;-2.18;100.00
78741;BME280;68062;48.726;9.370;2024-01-30T06:08:36;100193.81;;;-2.19;100.00
78741;BME280;68062;48.726;9.370;2024-01-30T06:11:04;100197.09;;;-2.20;100.00
78741;BME280;68062;48.726;9.370;2024-01-30T06:13:31;100179.25;;;-2.24;100.00
78741;BME280;68062;48.726;9.370;2024-01-30T06:15:59;100197.69;;;-2.13;100.00
78741;BME280;68062;48.726;9.370;2024-01-30T06:18:27;100193.28;;;-2.15;100.00
78741;BME280;68062;48.726;9.370;2024-01-30T06:20:57;100191.19;;;-2.21;100.00
78741;BME280;68062;48.726;9.370;2024-01-30T06:23:25;100194.34;;;-2.24;100.00
78741;BME280;68062;48.726;9.370;2024-01-30T06:25:54;100190.00;;;-2.26;100.00
78741;BME280;68062;48.726;9.370;2024-01-30T06:28:22;100191.53;;;-2.28;100.00
78741;BME280;68062;48.726;9.370;2024-01-30T06:30:50;100191.19;;;-2.21;100.00
78741;BME280;68062;48.726;9.370;2024-01-30T06:33:18;100199.09;;;-2.16;100.00
78741;BME280;68062;48.726;9.370;2024-01-30T06:35:46;100198.97;;;-2.18;100.00
78741;BME280;68062;48.726;9.370;2024-01-30T06:38:14;100203.03;;;-2.20;100.00
78741;BME280;68062;48.726;9.370;2024-01-30T06:40:42;100194.28;;;-2.25;100.00
78741;BME280;68062;48.726;9.370;2024-01-30T06:43:11;100198.31;;;-2.27;100.00
78741;BME280;68062;48.726;9.370;2024-01-30T06:45:41;100200.72;;;-2.29;100.00
78741;BME280;68062;48.726;9.370;2024-01-30T06:48:09;100155.31;;;-2.53;100.00
78741;BME280;68062;48.726;9.370;2024-01-30T06:50:37;100193.81;;;-2.31;100.00
78741;BME280;68062;48.726;9.370;2024-01-30T06:53:05;100199.19;;;-2.27;100.00
78741;BME280;68062;48.726;9.370;2024-01-30T06:55:35;100209.63;;;-2.22;100.00
78741;BME280;68062;48.726;9.370;2024-01-30T06:58:03;100204.78;;;-2.19;100.00
78741;BME280;68062;48.726;9.370;2024-01-30T07:00:32;100205.25;;;-2.13;100.00
78741;BME280;68062;48.726;9.370;2024-01-30T07:03:00;100200.19;;;-2.13;100.00
78741;BME280;68062;48.726;9.370;2024-01-30T07:05:28;100157.34;;;-2.37;100.00
78741;BME280;68062;48.726;9.370;2024-01-30T07:07:56;100202.94;;;-2.10;100.00
78741;BME280;68062;48.726;9.370;2024-01-30T07:10:25;100172.22;;;-2.28;100.00
78741;BME280;68062;48.726;9.370;2024-01-30T07:12:53;100208.19;;;-1.95;100.00
78741;BME280;68062;48.726;9.370;2024-01-30T07:15:21;100208.63;;;-1.88;100.00
78741;BME280;68062;48.726;9.370;2024-01-30T07:17:50;100193.59;;;-1.99;100.00
78741;BME280;68062;48.726;9.370;2024-01-30T07:20:18;100217.72;;;-1.79;100.00
78741;BME280;68062;48.726;9.370;2024-01-30T07:22:47;100220.47;;;-1.75;100.00
78741;BME280;68062;48.726;9.370;2024-01-30T07:25:15;100219.81;;;-1.73;100.00
78741;BME280;68062;48.726;9.370;2024-01-30T07:27:44;100220.91;;;-1.69;100.00
78741;BME280;68062;48.726;9.370;2024-01-30T07:30:12;100219.13;;;-1.58;100.00
78741;BME280;68062;48.726;9.370;2024-01-30T07:32:40;100228.31;;;-1.47;100.00
78741;BME280;68062;48.726;9.370;2024-01-30T07:35:09;100225.78;;;-1.35;100.00
78741;BME280;68062;48.726;9.370;2024-01-30T07:37:38;100233.53;;;-1.20;100.00
78741;BME280;68062;48.726;9.370;2024-01-30T07:40:07;100236.75;;;-0.97;100.00
78741;BME280;68062;48.726;9.370;2024-01-30T07:42:35;100225.03;;;-0.83;100.00
78741;BME280;68062;48.726;9.370;2024-01-30T07:45:03;100220.44;;;-0.64;100.00
78741;BME280;68062;48.726;9.370;2024-01-30T07:47:31;100219.91;;;-0.46;100.00
78741;BME280;68062;48.726;9.370;2024-01-30T07:49:59;100229.59;;;-0.27;100.00
78741;BME280;68062;48.726;9.370;2024-01-30T07:52:29;100224.84;;;-0.09;100.00
78741;BME280;68062;48.726;9.370;2024-01-30T07:54:57;100234.19;;;0.06;100.00
78741;BME280;68062;48.726;9.370;2024-01-30T07:57:25;100217.66;;;0.24;100.00
78741;BME280;68062;48.726;9.370;2024-01-30T07:59:53;100172.56;;;0.19;100.00
78741;BME280;68062;48.726;9.370;2024-01-30T08:02:21;100221.50;;;0.60;100.00
78741;BME280;68062;48.726;9.370;2024-01-30T08:04:49;100223.72;;;0.68;100.00
78741;BME280;68062;48.726;9.370;2024-01-30T08:07:17;100226.31;;;0.83;100.00
78741;BME280;68062;48.726;9.370;2024-01-30T08:09:46;100225.38;;;0.96;100.00
78741;BME280;68062;48.726;9.370;2024-01-30T08:12:14;100216.31;;;1.00;100.00
78741;BME280;68062;48.726;9.370;2024-01-30T08:14:42;100214.16;;;1.06;100.00
78741;BME280;68062;48.726;9.370;2024-01-30T08:17:10;100205.41;;;1.01;100.00
78741;BME280;68062;48.726;9.370;2024-01-30T08:19:38;100219.84;;;1.17;100.00
78741;BME280;68062;48.726;9.370;2024-01-30T08:22:06;100214.81;;;1.32;100.00
78741;BME280;68062;48.726;9.370;2024-01-30T08:24:34;100213.16;;;1.47;100.00
78741;BME280;68062;48.726;9.370;2024-01-30T08:27:04;100222.81;;;1.83;100.00
78741;BME280;68062;48.726;9.370;2024-01-30T08:29:31;100187.81;;;1.93;100.00
78741;BME280;68062;48.726;9.370;2024-01-30T08:31:59;100211.16;;;2.33;100.00
78741;BME280;68062;48.726;9.370;2024-01-30T08:34:27;100211.56;;;2.73;100.00
78741;BME280;68062;48.726;9.370;2024-01-30T08:36:55;100212.53;;;3.08;100.00
78741;BME280;68062;48.726;9.370;2024-01-30T08:39:24;100206.88;;;3.30;98.62
78741;BME280;68062;48.726;9.370;2024-01-30T08:41:54;100195.47;;;3.57;95.97
78741;BME280;68062;48.726;9.370;2024-01-30T08:44:23;100198.56;;;3.86;94.37
78741;BME280;68062;48.726;9.370;2024-01-30T08:46:51;100200.50;;;4.27;91.42
78741;BME280;68062;48.726;9.370;2024-01-30T08:49:22;100204.66;;;4.63;89.88
78741;BME280;68062;48.726;9.370;2024-01-30T08:51:50;100179.16;;;5.01;85.54
78741;BME280;68062;48.726;9.370;2024-01-30T08:54:18;100198.00;;;5.45;82.71
78741;BME280;68062;48.726;9.370;2024-01-30T08:56:46;100198.44;;;5.78;80.09
78741;BME280;68062;48.726;9.370;2024-01-30T08:59:14;100198.03;;;6.09;78.69
78741;BME280;68062;48.726;9.370;2024-01-30T09:01:44;100196.09;;;6.47;75.65
78741;BME280;68062;48.726;9.370;2024-01-30T09:04:29;100202.75;;;6.67;75.08
78741;BME280;68062;48.726;9.370;2024-01-30T09:06:57;100203.63;;;7.16;71.46
78741;BME280;68062;48.726;9.370;2024-01-30T09:09:26;100208.44;;;7.31;71.70
78741;BME280;68062;48.726;9.370;2024-01-30T09:11:54;100207.53;;;7.55;70.01
78741;BME280;68062;48.726;9.370;2024-01-30T09:14:22;100204.38;;;7.89;68.17
78741;BME280;68062;48.726;9.370;2024-01-30T09:16:52;100208.47;;;8.12;66.96
78741;BME280;68062;48.726;9.370;2024-01-30T09:19:19;100213.34;;;8.31;65.54
78741;BME280;68062;48.726;9.370;2024-01-30T09:21:47;100209.72;;;8.52;64.94
78741;BME280;68062;48.726;9.370;2024-01-30T09:24:16;100201.00;;;8.76;63.08
78741;BME280;68062;48.726;9.370;2024-01-30T09:26:44;100206.81;;;9.01;62.34
78741;BME280;68062;48.726;9.370;2024-01-30T09:29:12;100203.94;;;9.20;62.06
78741;BME280;68062;48.726;9.370;2024-01-30T09:31:43;100201.78;;;9.37;60.14
78741;BME280;68062;48.726;9.370;2024-01-30T09:34:12;100204.59;;;9.47;60.55
78741;BME280;68062;48.726;9.370;2024-01-30T09:36:40;100210.13;;;9.61;58.88
78741;BME280;68062;48.726;9.370;2024-01-30T09:39:09;100208.31;;;9.58;58.79
78741;BME280;68062;48.726;9.370;2024-01-30T09:41:44;100207.78;;;9.71;59.42
78741;BME280;68062;48.726;9.370;2024-01-30T09:44:15;100205.16;;;9.68;58.89
78741;BME280;68062;48.726;9.370;2024-01-30T09:46:46;100206.72;;;9.97;57.91
78741;BME280;68062;48.726;9.370;2024-01-30T09:49:16;100206.72;;;9.97;57.81
78741;BME280;68062;48.726;9.370;2024-01-30T09:51:47;100206.94;;;10.08;57.54
78741;BME280;68062;48.726;9.370;2024-01-30T09:54:16;100206.34;;;9.83;56.61
78741;BME280;68062;48.726;9.370;2024-01-30T09:56:45;100214.41;;;9.62;57.08
78741;BME280;68062;48.726;9.370;2024-01-30T09:59:13;100212.75;;;9.64;57.67
78741;BME280;68062;48.726;9.370;2024-01-30T10:01:42;100211.50;;;9.83;57.26
78741;BME280;68062;48.726;9.370;2024-01-30T10:04:10;100204.31;;;10.05;57.11
78741;BME280;68062;48.726;9.370;2024-01-30T10:06:40;100197.13;;;10.28;56.15
78741;BME280;68062;48.726;9.370;2024-01-30T10:09:08;100197.66;;;10.51;55.98
78741;BME280;68062;48.726;9.370;2024-01-30T10:11:36;100203.00;;;10.60;55.65
78741;BME280;68062;48.726;9.370;2024-01-30T10:14:04;100197.63;;;10.50;55.78
78741;BME280;68062;48.726;9.370;2024-01-30T10:16:34;100197.09;;;10.26;55.72
78741;BME280;68062;48.726;9.370;2024-01-30T10:19:02;100198.69;;;10.21;55.18
78741;BME280;68062;48.726;9.370;2024-01-30T10:21:30;100202.34;;;10.31;55.09
78741;BME280;68062;48.726;9.370;2024-01-30T10:24:00;100200.06;;;10.43;55.90
78741;BME280;68062;48.726;9.370;2024-01-30T10:26:28;100176.13;;;10.46;54.79
78741;BME280;68062;48.726;9.370;2024-01-30T10:28:59;100197.38;;;10.80;54.71
78741;BME280;68062;48.726;9.370;2024-01-30T10:31:27;100200.63;;;11.14;53.52
78741;BME280;68062;48.726;9.370;2024-01-30T10:33:55;100197.69;;;11.42;52.17
78741;BME280;68062;48.726;9.370;2024-01-30T10:36:40;100193.78;;;11.66;50.93
78741;BME280;68062;48.726;9.370;2024-01-30T10:39:11;100189.81;;;11.85;50.64
78741;BME280;68062;48.726;9.370;2024-01-30T10:41:43;100193.19;;;11.82;50.46
78741;BME280;68062;48.726;9.370;2024-01-30T10:44:12;100193.16;;;11.79;50.12
78741;BME280;68062;48.726;9.370;2024-01-30T10:46:50;100181.88;;;11.72;50.46
78741;BME280;68062;48.726;9.370;2024-01-30T10:49:19;100191.31;;;11.70;50.80
78741;BME280;68062;48.726;9.370;2024-01-30T10:51:49;100179.78;;;11.50;50.90
78741;BME280;68062;48.726;9.370;2024-01-30T10:54:19;100179.19;;;11.15;51.42
78741;BME280;68062;48.726;9.370;2024-01-30T10:56:49;100183.09;;;10.95;52.39
78741;BME280;68062;48.726;9.370;2024-01-30T10:59:18;100142.88;;;10.55;52.66
78741;BME280;68062;48.726;9.370;2024-01-30T11:01:46;100178.94;;;10.58;53.12
78741;BME280;68062;48.726;9.370;2024-01-30T11:04:14;100163.25;;;10.46;53.24
78741;BME280;68062;48.726;9.370;2024-01-30T11:06:42;100171.50;;;10.31;54.00
78741;BME280;68062;48.726;9.370;2024-01-30T11:09:11;100160.75;;;10.11;54.32
78741;BME280;68062;48.726;9.370;2024-01-30T11:11:55;100171.84;;;10.08;55.06
78741;BME280;68062;48.726;9.370;2024-01-30T11:14:26;100157.94;;;10.00;54.25
78741;BME280;68062;48.726;9.370;2024-01-30T11:16:57;100164.47;;;9.85;55.37
78741;BME280;68062;48.726;9.370;2024-01-30T11:19:25;100169.28;;;10.10;55.89
78741;BME280;68062;48.726;9.370;2024-01-30T11:21:54;100167.75;;;10.18;54.39
78741;BME280;68062;48.726;9.370;2024-01-30T11:24:24;100157.63;;;10.24;54.79
78741;BME280;68062;48.726;9.370;2024-01-30T11:26:57;100155.25;;;10.34;54.86
78741;BME280;68062;48.726;9.370;2024-01-30T11:29:25;100152.47;;;10.24;55.10
78741;BME280;68062;48.726;9.370;2024-01-30T11:31:55;100144.69;;;10.20;55.14
78741;BME280;68062;48.726;9.370;2024-01-30T11:34:25;100150.59;;;10.17;55.90
78741;BME280;68062;48.726;9.370;2024-01-30T11:36:56;100143.78;;;10.19;55.53
78741;BME280;68062;48.726;9.370;2024-01-30T11:39:26;100148.03;;;10.17;55.54
78741;BME280;68062;48.726;9.370;2024-01-30T11:41:54;100145.94;;;9.99;55.60
78741;BME280;68062;48.726;9.370;2024-01-30T11:44:24;100127.75;;;9.91;56.56
78741;BME280;68062;48.726;9.370;2024-01-30T11:46:52;100143.31;;;9.97;56.31
78741;BME280;68062;48.726;9.370;2024-01-30T11:49:20;100143.50;;;10.05;56.70
78741;BME280;68062;48.726;9.370;2024-01-30T11:51:48;100133.22;;;10.05;55.60
78741;BME280;68062;48.726;9.370;2024-01-30T11:54:17;100135.09;;;10.14;56.20
78741;BME280;68062;48.726;9.370;2024-01-30T11:56:45;100142.09;;;10.20;56.14
78741;BME280;68062;48.726;9.370;2024-01-30T11:59:13;100135.38;;;10.26;56.17
78741;BME280;68062;48.726;9.370;2024-01-30T12:01:42;100132.31;;;10.41;55.32
78741;BME280;68062;48.726;9.370;2024-01-30T12:04:11;100126.84;;;10.69;55.59
78741;BME280;68062;48.726;9.370;2024-01-30T12:06:39;100093.53;;;10.77;54.31
78741;BME280;68062;48.726;9.370;2024-01-30T12:09:09;100130.94;;;11.05;54.14
78741;BME280;68062;48.726;9.370;2024-01-30T12:11:46;100126.75;;;11.10;54.40
78741;BME280;68062;48.726;9.370;2024-01-30T12:14:15;100120.72;;;11.10;54.42
78741;BME280;68062;48.726;9.370;2024-01-30T12:16:48;100113.66;;;10.99;54.71
78741;BME280;68062;48.726;9.370;2024-01-30T12:19:21;100117.75;;;10.88;54.15
78741;BME280;68062;48.726;9.370;2024-01-30T12:21:59;100110.75;;;10.79;54.40
78741;BME280;68062;48.726;9.370;2024-01-30T12:24:27;100098.38;;;10.61;55.02
78741;BME280;68062;48.726;9.370;2024-01-30T12:26:59;100102.72;;;10.64;55.20
78741;BME280;68062;48.726;9.370;2024-01-30T12:29:27;100096.06;;;10.75;55.09
78741;BME280;68062;48.726;9.370;2024-01-30T12:32:02;100096.94;;;10.75;54.81
78741;BME280;68062;48.726;9.370;2024-01-30T12:34:30;100096.22;;;10.83;54.39
78741;BME280;68062;48.726;9.370;2024-01-30T12:37:04;100092.84;;;10.87;54.86
78741;BME280;68062;48.726;9.370;2024-01-30T12:39:33;100086.88;;;10.88;55.06
78741;BME280;68062;48.726;9.370;2024-01-30T12:42:01;100095.66;;;10.99;54.57
78741;BME280;68062;48.726;9.370;2024-01-30T12:44:29;100082.88;;;11.06;54.91
78741;BME280;68062;48.726;9.370;2024-01-30T12:46:57;100087.59;;;11.30;54.60
78741;BME280;68062;48.726;9.370;2024-01-30T12:49:29;100091.13;;;11.37;54.20
78741;BME280;68062;48.726;9.370;2024-01-30T12:51:58;100081.00;;;11.47;54.12
78741;BME280;68062;48.726;9.370;2024-01-30T12:54:26;100078.44;;;11.47;53.23